Aérodrome :
LOGIN :

S'inscrire | Disclaimer

   EN    FR    IT 

 










Légende :    VFR   VFR Marginal   IFR   IFR Intensif   IFR Très Intensif
Visi : 
Plafond : 
>= 8 km
>= 3000ft
5 à 8 km
1000 à 3000 ft
1500m à 5 km
500 à 1000 ft
800 à 1500m
200 à 500 ft
< 800m
< 200 ft
Symboles :   Orages  Brouillard  Fortes neiges  Fortes précipitations  Vent > 20 kt
SIGMETs :   Divers  Orages  Givrage  Turbulence  Onde Orograph.  Cendres Volcan.






- Altitude de l'aérodrome : 55 ft
- Code IATA : DSA


EGCN - Robin Hood Doncaster Sheffield

DERNIER METAR :
  • 211320Z 09005KT 060V130 9999 BKN026 06/02 Q1005

METARs EXPIRÉS :
  • 211250Z 10006KT 060V130 9999 BKN027 06/02 Q1006
  • 211220Z 12011KT 080V150 9999 BKN026 06/01 Q1006
  • 211150Z 10008KT 070V130 9999 BKN025 05/02 Q1007
  • 211120Z 10010KT 070V130 9999 BKN026 05/02 Q1007
  • 211050Z 09008KT 9999 BKN025 05/02 Q1007

TAF TAF EGCN
Valide du 21 à 12h jusqu'au 22 à 12h UTC


211100Z 2112/2212 10006KT 9999 BKN025
PROB30
TEMPO 2112/2116 8000 BKN014
BECMG 2116/2119 9000 BKN012
PROB30
TEMPO 2121/2204 2000 BR BKN003
TEMPO 2204/2210 2000 RA BKN003
BECMG 2210/2212 9999 NSW SCT020
TEMPO 2210/2212 6000 RA



MET'MAP, la Météo Aéronautique d'un coup d'oeil ! - Copyright ORBIFLY Décembre 2007 - Disclaimer

ORBIFLY MET'MAP TEAM :

Programmation & Développement : Alexandra Zaïnal
Conception & Développement : Baudouin d'Aumeries
Co-Programmation & Développement : Marc-Olivier Méhu
Soutien technique & logistique : Manuel Goepfert

Contact : metmap@orbifly.com




SOURCES & CREDITS :

   NOAA